Time;durP1;ratioP1;P1;durP2;ratioP2;P2;SDS_P1;SDS_P2;PMS_P1;PMS_P2;Temp;Humidity;BMP_temperature;BMP_pressure;BME280_temperature;BME280_humidity;BME280_pressure;Samples;Min_cycle;Max_cycle;Signal;HPM_P1;HPM_P2
2023/08/18 00:00:34;;;;;;;5.88;3.40;;;26.30;77.40;;;;;;5053091;28;20021;-80
2023/08/18 00:03:00;;;;;;;7.68;3.67;;;26.20;77.30;;;;;;5052754;28;20029;-80
2023/08/18 00:05:26;;;;;;;6.63;3.45;;;26.20;77.30;;;;;;5052669;28;20021;-80
2023/08/18 00:07:51;;;;;;;4.68;3.42;;;26.20;77.30;;;;;;5064628;28;20079;-80
2023/08/18 00:10:17;;;;;;;5.65;3.75;;;26.20;82.40;;;;;;5052572;28;20032;-79
2023/08/18 00:12:43;;;;;;;6.63;3.13;;;26.20;76.70;;;;;;5067791;28;20059;-81
2023/08/18 00:15:09;;;;;;;4.88;3.22;;;26.20;76.60;;;;;;4966642;28;20091;-81
2023/08/18 00:17:35;;;;;;;4.15;3.05;;;26.20;76.40;;;;;;5051956;28;20044;-82
2023/08/18 00:20:02;;;;;;;4.95;3.30;;;26.20;76.30;;;;;;5052402;28;20050;-81
2023/08/18 00:22:29;;;;;;;5.53;3.10;;;26.20;76.20;;;;;;5052567;28;20017;-81
2023/08/18 00:24:56;;;;;;;4.85;3.10;;;26.20;76.30;;;;;;5067963;28;20032;-81
2023/08/18 00:27:22;;;;;;;7.75;4.00;;;26.20;76.60;;;;;;5052490;28;20044;-82
2023/08/18 00:29:47;;;;;;;3.75;3.15;;;26.20;76.70;;;;;;5052409;28;20115;-79
2023/08/18 00:32:13;;;;;;;6.15;2.97;;;26.20;76.80;;;;;;5052543;28;20100;-81
2023/08/18 00:34:39;;;;;;;6.93;3.30;;;26.10;76.80;;;;;;5052087;28;20048;-79
2023/08/18 00:37:05;;;;;;;4.35;2.75;;;26.10;76.80;;;;;;5052269;28;20049;-81
2023/08/18 00:39:31;;;;;;;4.45;2.83;;;26.10;76.70;;;;;;5052470;28;20368;-81
2023/08/18 00:41:57;;;;;;;8.52;3.00;;;26.00;76.60;;;;;;5052419;28;20028;-81
2023/08/18 00:44:23;;;;;;;5.72;3.17;;;26.00;76.70;;;;;;5052540;28;20509;-80
2023/08/18 00:46:49;;;;;;;4.95;3.47;;;26.10;76.90;;;;;;5052506;28;20029;-80
2023/08/18 00:49:19;;;;;;;4.82;3.22;;;26.00;76.90;;;;;;5052398;28;20036;-80
2023/08/18 00:51:45;;;;;;;10.15;3.55;;;26.10;77.00;;;;;;5052483;28;20021;-81
2023/08/18 00:54:12;;;;;;;8.27;3.95;;;26.00;76.80;;;;;;5052123;28;20442;-79
2023/08/18 00:56:39;;;;;;;5.82;3.53;;;26.00;77.60;;;;;;5052416;28;20017;-79
2023/08/18 00:59:06;;;;;;;4.93;3.65;;;26.00;77.10;;;;;;5049684;28;20033;-80
2023/08/18 01:01:33;;;;;;;5.07;3.58;;;26.00;77.00;;;;;;5049429;28;20025;-80
2023/08/18 01:03:59;;;;;;;4.85;3.75;;;26.00;77.00;;;;;;5049864;28;20498;-81
2023/08/18 01:06:25;;;;;;;4.47;3.30;;;26.00;77.10;;;;;;5052859;28;20466;-80
2023/08/18 01:08:51;;;;;;;5.18;4.15;;;26.00;77.20;;;;;;5056169;28;20079;-80
2023/08/18 01:11:22;;;;;;;8.65;4.10;;;26.00;77.20;;;;;;5056042;28;20048;-80
2023/08/18 01:14:12;;;;;;;5.43;3.63;;;26.00;77.30;;;;;;5055716;28;20025;-80
2023/08/18 01:16:42;;;;;;;6.05;3.50;;;26.00;77.50;;;;;;4970407;28;20060;-81
2023/08/18 01:19:13;;;;;;;6.55;4.10;;;25.90;77.60;;;;;;5055379;28;20116;-81
2023/08/18 01:21:43;;;;;;;8.55;4.28;;;25.90;78.10;;;;;;5055242;28;20025;-81
2023/08/18 01:24:08;;;;;;;6.47;4.53;;;25.90;84.00;;;;;;5055696;28;20017;-80
2023/08/18 01:26:34;;;;;;;6.25;4.30;;;25.80;78.50;;;;;;4969587;28;20025;-81
2023/08/18 01:29:00;;;;;;;4.50;4.00;;;25.80;78.80;;;;;;5055355;28;20099;-80
2023/08/18 01:31:31;;;;;;;6.00;4.10;;;25.80;79.00;;;;;;5055582;28;20104;-80
2023/08/18 01:34:01;;;;;;;4.70;4.20;;;25.70;79.60;;;;;;5055356;28;20387;-80
2023/08/18 01:36:33;;;;;;;7.10;4.18;;;25.70;80.00;;;;;;5055049;28;20395;-80
2023/08/18 01:39:01;;;;;;;4.82;3.80;;;25.70;80.30;;;;;;5055252;28;20075;-81
2023/08/18 01:41:29;;;;;;;5.43;4.18;;;25.60;80.40;;;;;;5055172;28;20431;-81
2023/08/18 01:43:56;;;;;;;5.68;4.15;;;25.60;80.40;;;;;;5055251;28;20473;-81
2023/08/18 01:46:21;;;;;;;4.90;4.35;;;25.50;80.50;;;;;;5054986;28;20842;-81
2023/08/18 01:48:47;;;;;;;5.90;4.07;;;25.50;80.60;;;;;;5055517;28;20115;-80
2023/08/18 01:51:13;;;;;;;8.73;5.00;;;25.50;80.70;;;;;;5055330;28;20033;-81
2023/08/18 01:53:39;;;;;;;7.28;4.38;;;25.40;80.50;;;;;;5054966;28;20390;-79
2023/08/18 01:56:04;;;;;;;5.28;4.05;;;25.40;80.60;;;;;;5055148;28;20414;-81
2023/08/18 01:58:30;;;;;;;9.07;4.40;;;25.40;80.60;;;;;;5054648;28;20549;-81
2023/08/18 02:00:56;;;;;;;6.53;4.10;;;25.40;80.40;;;;;;4969241;28;20395;-81
2023/08/18 02:03:23;;;;;;;6.57;4.72;;;25.40;80.40;;;;;;5055208;28;20024;-81
2023/08/18 02:05:56;;;;;;;5.22;4.05;;;25.40;80.40;;;;;;5055206;28;20025;-81
2023/08/18 02:08:22;;;;;;;5.68;4.53;;;25.40;80.20;;;;;;5054737;28;20039;-81
2023/08/18 02:10:47;;;;;;;7.40;4.55;;;25.40;80.20;;;;;;5054940;28;20029;-81
2023/08/18 02:13:14;;;;;;;5.85;4.18;;;25.40;80.20;;;;;;5054786;28;21229;-81
2023/08/18 02:15:39;;;;;;;9.88;4.20;;;25.40;80.20;;;;;;4969508;28;20459;-81
2023/08/18 02:18:06;;;;;;;7.40;4.63;;;25.40;80.40;;;;;;5054737;28;20064;-81
2023/08/18 02:20:32;;;;;;;5.53;4.07;;;25.40;80.20;;;;;;5054651;28;20021;-81
2023/08/18 02:22:58;;;;;;;5.30;4.80;;;25.40;80.10;;;;;;5054927;28;20028;-81
2023/08/18 02:25:23;;;;;;;4.63;4.22;;;25.40;80.10;;;;;;5054660;28;20029;-81
2023/08/18 02:27:49;;;;;;;5.40;3.90;;;25.40;80.10;;;;;;5054873;28;20076;-81
2023/08/18 02:30:16;;;;;;;6.25;4.60;;;25.40;80.10;;;;;;5054692;28;20029;-81
2023/08/18 02:32:42;;;;;;;6.68;4.38;;;25.40;80.00;;;;;;5054347;28;20070;-81
2023/08/18 02:35:08;;;;;;;8.90;4.60;;;25.40;80.20;;;;;;5054495;28;20052;-81
2023/08/18 02:37:34;;;;;;;5.05;4.47;;;25.40;80.10;;;;;;5054734;28;20107;-81
2023/08/18 02:40:00;;;;;;;4.85;4.20;;;25.40;80.50;;;;;;5054329;28;20544;-80
2023/08/18 02:42:25;;;;;;;8.20;4.68;;;25.40;80.60;;;;;;5054222;28;20033;-81
2023/08/18 02:44:51;;;;;;;7.07;4.32;;;25.40;80.80;;;;;;5053871;28;20104;-81
2023/08/18 02:47:17;;;;;;;6.50;4.40;;;25.40;80.90;;;;;;5054195;28;20046;-80
2023/08/18 02:49:43;;;;;;;5.80;4.40;;;25.30;80.80;;;;;;5053980;28;20039;-81
2023/08/18 02:52:10;;;;;;;8.32;4.72;;;25.30;80.90;;;;;;5054112;28;20040;-80
2023/08/18 02:54:36;;;;;;;5.50;4.85;;;25.30;80.80;;;;;;4968581;28;20091;-80
2023/08/18 02:57:01;;;;;;;7.20;4.35;;;25.30;81.00;;;;;;5054116;28;20028;-81
2023/08/18 02:59:27;;;;;;;7.45;4.38;;;25.30;81.00;;;;;;5053748;28;20108;-80
2023/08/18 03:01:54;;;;;;;6.85;4.30;;;25.30;81.00;;;;;;4968728;28;20032;-80
2023/08/18 03:04:19;;;;;;;8.60;4.55;;;25.20;81.00;;;;;;5053805;28;20021;-80
2023/08/18 03:06:45;;;;;;;9.05;4.50;;;25.20;80.90;;;;;;4968793;28;20071;-81
2023/08/18 03:09:11;;;;;;;7.00;4.82;;;25.20;81.10;;;;;;4968926;28;20052;-79
2023/08/18 03:11:37;;;;;;;5.03;4.20;;;25.20;81.10;;;;;;5053885;28;20043;-80
2023/08/18 03:14:05;;;;;;;5.97;4.20;;;25.20;81.20;;;;;;5053391;28;20091;-80
2023/08/18 03:16:30;;;;;;;6.57;4.50;;;25.20;81.20;;;;;;5053513;28;20560;-80
2023/08/18 03:18:56;;;;;;;8.07;5.47;;;25.20;81.30;;;;;;5053711;28;20024;-81
2023/08/18 03:21:22;;;;;;;7.68;4.85;;;25.20;81.20;;;;;;5053794;28;20029;-81
2023/08/18 03:23:47;;;;;;;5.82;4.65;;;25.30;81.10;;;;;;5040093;28;20108;-81
2023/08/18 03:26:13;;;;;;;5.63;4.88;;;25.20;81.10;;;;;;5053314;28;20040;-81
2023/08/18 03:28:39;;;;;;;5.90;4.78;;;25.30;81.20;;;;;;5052287;28;20096;-80
2023/08/18 03:31:07;;;;;;;9.18;5.53;;;25.30;81.10;;;;;;5052471;28;20035;-80
2023/08/18 03:33:33;;;;;;;7.38;5.05;;;25.20;81.00;;;;;;5053341;28;20033;-81
2023/08/18 03:35:59;;;;;;;7.80;4.65;;;25.20;80.90;;;;;;5042268;28;20084;-80
2023/08/18 03:38:26;;;;;;;9.27;5.05;;;25.20;81.00;;;;;;5031456;28;20490;-81
2023/08/18 03:41:04;;;;;;;8.10;4.63;;;25.20;81.00;;;;;;5032537;28;20060;-80
2023/08/18 03:43:31;;;;;;;6.15;4.80;;;25.20;81.20;;;;;;5014594;28;20025;-80
2023/08/18 03:46:15;;;;;;;10.32;4.82;;;25.20;81.10;;;;;;5032381;28;20017;-80
2023/08/18 03:48:41;;;;;;;6.72;4.50;;;25.20;81.20;;;;;;5032650;28;20021;-80
2023/08/18 03:51:07;;;;;;;5.97;4.78;;;25.10;81.20;;;;;;5031102;28;20033;-81
2023/08/18 03:53:32;;;;;;;7.35;5.00;;;25.20;81.30;;;;;;5032008;28;20216;-81
2023/08/18 03:56:00;;;;;;;7.45;4.88;;;25.20;81.50;;;;;;5014611;28;20029;-81
2023/08/18 03:58:26;;;;;;;8.10;4.97;;;25.10;81.50;;;;;;5032088;28;20028;-81
2023/08/18 04:01:01;;;;;;;12.23;4.85;;;25.20;81.70;;;;;;5032128;28;20021;-81
2023/08/18 04:03:27;;;;;;;6.80;4.68;;;25.20;81.90;;;;;;5032435;28;20084;-80
2023/08/18 04:05:53;;;;;;;9.27;5.25;;;25.10;81.80;;;;;;5032199;28;20026;-80
2023/08/18 04:08:19;;;;;;;5.75;5.00;;;25.10;81.70;;;;;;5032139;28;20387;-79
2023/08/18 04:10:44;;;;;;;6.03;4.40;;;25.10;81.60;;;;;;5031983;28;20024;-79
2023/08/18 04:13:10;;;;;;;9.73;5.10;;;25.10;82.20;;;;;;5014206;28;20030;-79
2023/08/18 04:15:36;;;;;;;5.25;4.30;;;25.10;81.60;;;;;;5031997;28;20021;-79
2023/08/18 04:18:02;;;;;;;7.40;5.47;;;25.10;81.60;;;;;;5031931;28;20057;-79
2023/08/18 04:20:29;;;;;;;8.32;4.72;;;25.10;81.70;;;;;;5031888;28;20084;-79
2023/08/18 04:22:54;;;;;;;8.02;5.18;;;25.10;81.80;;;;;;5030450;28;20021;-79
2023/08/18 04:25:20;;;;;;;8.35;5.53;;;25.10;82.10;;;;;;5031912;28;20471;-79
2023/08/18 04:27:47;;;;;;;8.82;5.22;;;25.00;82.20;;;;;;5031451;28;20021;-78
2023/08/18 04:30:13;;;;;;;10.05;5.90;;;25.00;82.40;;;;;;5031269;28;20032;-81
2023/08/18 04:32:39;;;;;;;8.48;5.60;;;25.00;82.70;;;;;;5031744;28;20025;-78
2023/08/18 04:35:05;;;;;;;6.00;5.20;;;25.00;82.80;;;;;;4983909;28;1485190;-78
2023/08/18 04:37:31;;;;;;;13.20;5.28;;;25.00;83.20;;;;;;5071821;28;20333;-78
2023/08/18 04:39:57;;;;;;;10.10;6.05;;;24.90;83.20;;;;;;5072785;28;20017;-78
2023/08/18 04:42:22;;;;;;;12.00;6.00;;;25.00;83.40;;;;;;5075305;28;20131;-77
2023/08/18 04:44:48;;;;;;;6.88;5.18;;;24.90;83.90;;;;;;5058759;28;20074;-78
2023/08/18 04:47:15;;;;;;;9.95;5.70;;;24.90;84.20;;;;;;5076540;28;20106;-78
2023/08/18 04:49:41;;;;;;;10.15;5.90;;;24.90;84.40;;;;;;5075610;28;20033;-77
2023/08/18 04:52:10;;;;;;;8.90;5.80;;;24.90;84.40;;;;;;5074519;28;20025;-79
2023/08/18 04:54:35;;;;;;;12.55;5.60;;;24.90;84.50;;;;;;5074441;28;20112;-78
2023/08/18 04:57:03;;;;;;;7.65;4.93;;;24.90;84.10;;;;;;5074580;28;20575;-77
2023/08/18 04:59:29;;;;;;;7.22;5.05;;;24.90;84.50;;;;;;5074538;28;20024;-77
2023/08/18 05:01:55;;;;;;;7.60;4.85;;;24.90;84.20;;;;;;5074345;28;20070;-78
2023/08/18 05:04:22;;;;;;;5.88;5.28;;;24.90;84.20;;;;;;5074051;28;20025;-79
2023/08/18 05:06:47;;;;;;;10.48;5.20;;;24.90;84.10;;;;;;5076213;28;20051;-78
2023/08/18 05:09:13;;;;;;;6.68;5.20;;;25.00;84.10;;;;;;5058360;28;20032;-78
2023/08/18 05:11:39;;;;;;;7.32;5.30;;;25.00;84.10;;;;;;5076065;28;20017;-78
2023/08/18 05:14:05;;;;;;;10.13;5.35;;;25.00;84.00;;;;;;5075939;28;20072;-79
2023/08/18 05:16:30;;;;;;;9.63;5.22;;;25.00;84.70;;;;;;5075860;28;20013;-78
2023/08/18 05:18:58;;;;;;;9.60;5.38;;;25.00;84.10;;;;;;5057901;28;20060;-79
2023/08/18 05:21:24;;;;;;;7.28;5.13;;;25.00;84.20;;;;;;5058182;28;20134;-79
2023/08/18 05:23:50;;;;;;;6.15;5.13;;;25.00;84.20;;;;;;5076109;28;20063;-78
2023/08/18 05:26:16;;;;;;;10.23;6.22;;;25.00;83.90;;;;;;5075805;28;20069;-79
2023/08/18 05:28:43;;;;;;;10.23;5.22;;;25.00;83.90;;;;;;5075973;28;20052;-77
2023/08/18 05:31:10;;;;;;;7.90;5.25;;;25.00;84.00;;;;;;5075982;28;20017;-78
2023/08/18 05:33:36;;;;;;;8.95;5.30;;;25.00;83.90;;;;;;5075741;28;20042;-78
2023/08/18 05:36:04;;;;;;;6.32;5.10;;;25.10;84.00;;;;;;5075167;28;20413;-79
2023/08/18 05:38:30;;;;;;;10.90;5.35;;;25.10;83.90;;;;;;5075625;28;20090;-79
2023/08/18 05:41:08;;;;;;;6.93;5.30;;;25.10;83.80;;;;;;5075239;28;20028;-80
2023/08/18 05:43:35;;;;;;;9.73;5.75;;;25.20;84.00;;;;;;5075459;28;20042;-80
2023/08/18 05:46:01;;;;;;;6.70;4.95;;;25.20;84.20;;;;;;5073757;28;20661;-80
2023/08/18 05:48:29;;;;;;;12.57;5.78;;;25.20;84.30;;;;;;5056301;28;20381;-80
2023/08/18 05:50:55;;;;;;;8.20;5.28;;;25.20;84.50;;;;;;5075645;28;20100;-80
2023/08/18 05:53:21;;;;;;;7.78;5.40;;;25.20;84.40;;;;;;5075036;28;20111;-81
2023/08/18 05:55:46;;;;;;;7.60;5.57;;;25.20;84.40;;;;;;5056163;28;20565;-77
2023/08/18 05:58:13;;;;;;;7.95;5.30;;;25.30;84.20;;;;;;5072136;28;20029;-80
2023/08/18 06:00:38;;;;;;;11.38;5.82;;;25.30;84.20;;;;;;5073424;28;20025;-79
2023/08/18 06:03:04;;;;;;;6.63;5.22;;;25.30;84.00;;;;;;5073436;28;20458;-81
2023/08/18 06:05:30;;;;;;;10.65;5.70;;;25.40;84.20;;;;;;5073127;28;20021;-79
2023/08/18 06:07:56;;;;;;;8.63;5.30;;;25.40;84.00;;;;;;5073235;28;20044;-80
2023/08/18 06:10:22;;;;;;;9.18;5.15;;;25.40;84.00;;;;;;5073937;28;20062;-81
2023/08/18 06:12:49;;;;;;;8.38;4.85;;;25.40;83.90;;;;;;5075114;28;20624;-80
2023/08/18 06:15:19;;;;;;;7.22;5.22;;;25.40;84.00;;;;;;5074929;28;20033;-81
2023/08/18 06:17:45;;;;;;;11.15;5.35;;;25.50;84.00;;;;;;5075014;28;20490;-81
2023/08/18 06:20:12;;;;;;;8.95;5.38;;;25.50;83.80;;;;;;5074796;28;20538;-82
2023/08/18 06:22:37;;;;;;;9.38;5.40;;;25.50;83.80;;;;;;5074443;28;20047;-79
2023/08/18 06:25:07;;;;;;;10.35;5.45;;;25.60;84.00;;;;;;5074304;28;20029;-80
2023/08/18 06:27:33;;;;;;;9.25;5.40;;;25.50;84.40;;;;;;5074469;28;20492;-78
2023/08/18 06:29:59;;;;;;;8.90;5.07;;;25.60;83.70;;;;;;5073906;28;20027;-78
2023/08/18 06:32:24;;;;;;;10.13;5.10;;;25.60;83.60;;;;;;5073749;28;20020;-78
2023/08/18 06:34:51;;;;;;;9.73;5.40;;;25.60;83.90;;;;;;5073740;28;20090;-78
2023/08/18 06:37:17;;;;;;;9.35;5.97;;;25.70;84.10;;;;;;5074479;28;20470;-78
2023/08/18 06:39:43;;;;;;;9.35;5.65;;;25.70;83.90;;;;;;5074579;28;20021;-78
2023/08/18 06:42:09;;;;;;;7.90;5.05;;;25.70;83.90;;;;;;5074203;28;20382;-78
2023/08/18 06:44:35;;;;;;;11.85;5.40;;;25.70;84.00;;;;;;5074353;28;20063;-79
2023/08/18 06:47:01;;;;;;;5.93;5.32;;;25.70;84.20;;;;;;5056125;28;20020;-78
2023/08/18 06:49:27;;;;;;;8.23;5.43;;;25.70;84.10;;;;;;5074532;28;20107;-78
2023/08/18 06:51:56;;;;;;;8.32;5.05;;;25.70;84.10;;;;;;5074049;28;20112;-79
2023/08/18 06:54:22;;;;;;;7.68;5.32;;;25.80;84.30;;;;;;5072473;28;20571;-78
2023/08/18 06:56:48;;;;;;;13.07;5.45;;;25.80;84.30;;;;;;5072419;28;20020;-77
2023/08/18 06:59:17;;;;;;;14.25;5.63;;;25.80;84.20;;;;;;5072937;28;20036;-78
2023/08/18 07:01:43;;;;;;;17.02;5.38;;;25.80;84.20;;;;;;5073442;28;20197;-78
2023/08/18 07:04:10;;;;;;;5.60;4.78;;;25.90;84.20;;;;;;5072211;28;20025;-78
2023/08/18 07:06:36;;;;;;;9.13;5.32;;;25.90;84.10;;;;;;5073144;28;20020;-81
2023/08/18 07:09:03;;;;;;;9.02;5.40;;;25.90;84.10;;;;;;5073460;28;20375;-77
2023/08/18 07:11:29;;;;;;;9.80;5.15;;;25.90;83.70;;;;;;5073872;28;20029;-77
2023/08/18 07:13:55;;;;;;;7.13;5.15;;;26.00;83.80;;;;;;5073784;28;20028;-78
2023/08/18 07:16:21;;;;;;;6.97;4.85;;;26.00;83.80;;;;;;5073922;28;20055;-77
2023/08/18 07:18:46;;;;;;;8.43;5.00;;;26.00;83.40;;;;;;5073875;28;20024;-78
2023/08/18 07:21:12;;;;;;;8.95;5.07;;;26.10;83.10;;;;;;5073527;28;20020;-80
2023/08/18 07:23:38;;;;;;;7.70;5.15;;;26.10;83.10;;;;;;5073631;28;20039;-81
2023/08/18 07:26:04;;;;;;;7.93;4.90;;;26.10;83.10;;;;;;5073468;28;20017;-82
2023/08/18 07:28:29;;;;;;;7.80;5.10;;;26.20;83.20;;;;;;5073714;28;20016;-81
2023/08/18 07:31:00;;;;;;;8.60;5.40;;;26.20;83.20;;;;;;5072686;28;20086;-80
2023/08/18 07:33:26;;;;;;;10.65;5.93;;;26.20;83.00;;;;;;5073469;28;20036;-79
2023/08/18 07:35:51;;;;;;;7.10;5.00;;;26.20;82.90;;;;;;5073112;28;20052;-81
2023/08/18 07:38:17;;;;;;;10.25;5.38;;;26.30;82.60;;;;;;5073438;28;20074;-81
2023/08/18 07:40:43;;;;;;;11.85;5.45;;;26.30;82.40;;;;;;5073060;28;20091;-76
2023/08/18 07:43:09;;;;;;;7.45;5.43;;;26.40;82.30;;;;;;5072784;28;20042;-76
2023/08/18 07:45:34;;;;;;;6.40;5.10;;;26.40;82.20;;;;;;5072636;28;20089;-77
2023/08/18 07:48:00;;;;;;;7.00;5.50;;;26.50;81.70;;;;;;5073064;28;20029;-77
2023/08/18 07:50:26;;;;;;;6.47;5.30;;;26.50;81.00;;;;;;5072680;28;20017;-76
2023/08/18 07:52:52;;;;;;;6.95;5.35;;;26.50;80.60;;;;;;5072586;28;20023;-76
2023/08/18 07:55:21;;;;;;;6.85;5.38;;;26.50;80.30;;;;;;5072534;28;20044;-76
2023/08/18 07:57:47;;;;;;;5.50;4.95;;;26.50;80.20;;;;;;5055318;28;20078;-77
2023/08/18 08:00:17;;;;;;;8.40;5.32;;;26.60;79.90;;;;;;5054217;28;20505;-77
2023/08/18 08:02:44;;;;;;;6.65;5.35;;;26.70;79.70;;;;;;5072104;28;20474;-76
2023/08/18 08:05:10;;;;;;;8.45;4.88;;;26.70;79.30;;;;;;5072160;28;20096;-76
2023/08/18 08:07:36;;;;;;;6.32;5.03;;;26.70;79.40;;;;;;5071729;28;20025;-76
2023/08/18 08:10:03;;;;;;;6.97;5.60;;;26.80;79.40;;;;;;5071831;28;20096;-76
2023/08/18 08:12:34;;;;;;;11.18;5.38;;;26.80;79.00;;;;;;5071494;28;20518;-76
2023/08/18 08:15:00;;;;;;;7.65;5.28;;;26.90;79.10;;;;;;5071774;28;20440;-76
2023/08/18 08:17:29;;;;;;;6.63;5.13;;;26.90;79.20;;;;;;5072666;28;20052;-76
2023/08/18 08:19:56;;;;;;;6.32;5.20;;;27.00;78.50;;;;;;5071982;28;20024;-76
2023/08/18 08:22:22;;;;;;;8.07;5.10;;;27.00;78.50;;;;;;5070817;28;20378;-76
2023/08/18 08:24:50;;;;;;;6.30;5.18;;;27.00;78.40;;;;;;5072503;28;20466;-76
2023/08/18 08:27:16;;;;;;;6.30;4.93;;;27.00;78.30;;;;;;5072893;28;20382;-76
2023/08/18 08:29:41;;;;;;;7.82;5.55;;;27.00;78.60;;;;;;5054851;28;20024;-76
2023/08/18 08:32:07;;;;;;;8.15;5.75;;;27.10;79.10;;;;;;5072633;28;20024;-77
2023/08/18 08:34:33;;;;;;;6.72;5.35;;;27.10;79.00;;;;;;5072714;28;20040;-77
2023/08/18 08:36:59;;;;;;;7.90;5.25;;;27.20;80.00;;;;;;5045565;28;20099;-77
2023/08/18 08:39:24;;;;;;;5.65;5.03;;;27.20;80.10;;;;;;4970805;28;20038;-76
2023/08/18 08:41:50;;;;;;;6.72;5.63;;;27.30;80.10;;;;;;4970427;28;20102;-76
2023/08/18 08:44:16;;;;;;;10.65;5.47;;;27.40;79.50;;;;;;5037351;28;20035;-77
2023/08/18 08:46:43;;;;;;;10.93;6.03;;;27.40;79.10;;;;;;4971292;28;20019;-76
2023/08/18 08:49:12;;;;;;;6.40;5.30;;;27.40;79.10;;;;;;4970978;28;20023;-76
2023/08/18 08:51:44;;;;;;;6.95;5.20;;;27.50;79.30;;;;;;4970633;28;20084;-78
2023/08/18 08:54:12;;;;;;;9.52;5.28;;;27.50;78.50;;;;;;4970617;28;20077;-76
2023/08/18 08:56:39;;;;;;;7.57;5.55;;;27.50;78.10;;;;;;4970621;28;20023;-77
2023/08/18 08:59:06;;;;;;;6.50;5.45;;;27.60;78.40;;;;;;4970930;28;20058;-76
2023/08/18 09:01:32;;;;;;;7.93;5.35;;;27.60;78.10;;;;;;4970742;28;20423;-79
2023/08/18 09:03:59;;;;;;;6.90;5.63;;;27.60;77.90;;;;;;4969503;28;20522;-76
2023/08/18 09:06:25;;;;;;;8.18;5.78;;;27.60;78.30;;;;;;5036269;28;20073;-77
2023/08/18 09:08:51;;;;;;;9.57;5.45;;;27.70;78.70;;;;;;4968948;28;20431;-77
2023/08/18 09:11:17;;;;;;;10.85;5.80;;;27.70;78.70;;;;;;5002464;28;20414;-76
2023/08/18 09:13:43;;;;;;;15.27;5.75;;;27.80;79.00;;;;;;5050127;28;20095;-75
2023/08/18 09:16:09;;;;;;;7.15;5.50;;;27.80;78.90;;;;;;5051589;28;20029;-81
2023/08/18 09:18:35;;;;;;;7.55;5.45;;;27.90;78.40;;;;;;5051988;28;20029;-78
2023/08/18 09:21:04;;;;;;;6.07;5.50;;;27.90;78.10;;;;;;5051806;28;20025;-76
2023/08/18 09:23:30;;;;;;;7.70;5.80;;;27.90;78.00;;;;;;5051925;28;20053;-77
2023/08/18 09:25:59;;;;;;;7.10;5.50;;;27.90;77.80;;;;;;5051817;28;20060;-78
2023/08/18 09:28:26;;;;;;;9.75;5.07;;;28.00;78.20;;;;;;5036339;28;20582;-76
2023/08/18 09:30:52;;;;;;;7.68;5.22;;;28.00;77.90;;;;;;5055393;28;20479;-76
2023/08/18 09:33:23;;;;;;;6.38;5.18;;;28.00;77.70;;;;;;5055657;28;20024;-78
2023/08/18 09:35:58;;;;;;;7.57;5.00;;;28.10;78.00;;;;;;5054644;28;20565;-78
2023/08/18 09:38:25;;;;;;;6.65;5.22;;;28.10;77.60;;;;;;5055087;28;20049;-72
2023/08/18 09:40:57;;;;;;;5.97;5.03;;;28.20;77.50;;;;;;5055361;28;20017;-77
2023/08/18 09:43:25;;;;;;;7.47;5.30;;;28.20;77.50;;;;;;5054122;28;20025;-77
2023/08/18 09:45:53;;;;;;;8.55;5.25;;;28.20;77.20;;;;;;5055469;28;20025;-76
2023/08/18 09:48:22;;;;;;;6.20;5.07;;;28.30;77.30;;;;;;5055304;28;20495;-77
2023/08/18 09:50:53;;;;;;;6.60;5.10;;;28.30;76.70;;;;;;5053930;28;20111;-77
2023/08/18 09:53:26;;;;;;;9.18;5.20;;;28.30;76.50;;;;;;5055292;28;20033;-79
2023/08/18 09:55:57;;;;;;;8.25;5.60;;;28.40;76.00;;;;;;5055056;28;20036;-77
2023/08/18 09:58:23;;;;;;;4.82;4.32;;;28.40;75.00;;;;;;5055203;28;20035;-77
2023/08/18 10:00:56;;;;;;;6.90;5.10;;;28.50;74.50;;;;;;5055318;28;20104;-79
2023/08/18 10:03:26;;;;;;;6.95;5.00;;;28.50;74.50;;;;;;5052963;28;20083;-77
2023/08/18 10:05:53;;;;;;;6.40;5.53;;;28.50;75.00;;;;;;5053062;28;20025;-76
2023/08/18 10:08:21;;;;;;;5.82;5.05;;;28.60;74.30;;;;;;5054656;28;20024;-77
2023/08/18 10:10:47;;;;;;;10.45;4.95;;;28.70;73.40;;;;;;5054665;28;20025;-77
2023/08/18 10:13:14;;;;;;;9.23;4.95;;;28.70;74.00;;;;;;5054487;28;20553;-78
2023/08/18 10:15:40;;;;;;;11.55;4.45;;;28.70;73.20;;;;;;5054936;28;20391;-75
2023/08/18 10:18:09;;;;;;;6.18;4.80;;;28.80;72.40;;;;;;5054755;28;20096;-75
2023/08/18 10:20:35;;;;;;;7.43;5.35;;;28.80;72.40;;;;;;5054716;28;20029;-77
2023/08/18 10:23:02;;;;;;;12.98;7.57;;;28.80;72.50;;;;;;5054749;28;20375;-75
2023/08/18 10:25:29;;;;;;;6.43;5.03;;;28.80;72.40;;;;;;5036876;28;20128;-75
2023/08/18 10:27:56;;;;;;;6.55;5.25;;;28.90;72.40;;;;;;5054403;28;20068;-75
2023/08/18 10:30:27;;;;;;;5.50;4.90;;;28.90;71.50;;;;;;5054284;28;20064;-75
2023/08/18 10:33:00;;;;;;;5.78;5.13;;;29.00;71.40;;;;;;5054877;28;20108;-75
2023/08/18 10:35:28;;;;;;;7.10;4.60;;;29.00;71.20;;;;;;5053991;28;20510;-74
2023/08/18 10:37:55;;;;;;;7.43;5.47;;;29.10;71.70;;;;;;5054368;28;20021;-74
2023/08/18 10:40:39;;;;;;;7.28;5.25;;;29.10;71.60;;;;;;5052794;28;20062;-75
2023/08/18 10:43:10;;;;;;;10.40;4.82;;;29.10;72.00;;;;;;5054000;28;20056;-75
2023/08/18 10:45:36;;;;;;;6.43;4.95;;;29.20;72.10;;;;;;5054318;28;20031;-74
2023/08/18 10:48:04;;;;;;;8.65;5.40;;;29.20;72.10;;;;;;5052928;28;20025;-74
2023/08/18 10:50:34;;;;;;;6.72;5.18;;;29.20;72.30;;;;;;5053980;28;20029;-75
2023/08/18 10:53:03;;;;;;;6.03;4.85;;;29.30;72.20;;;;;;5054280;28;20032;-74
2023/08/18 10:55:30;;;;;;;6.03;5.43;;;29.30;72.20;;;;;;5054360;28;20036;-75
2023/08/18 10:57:55;;;;;;;5.90;5.30;;;29.40;71.70;;;;;;5054311;28;20514;-75
2023/08/18 11:00:21;;;;;;;11.18;5.60;;;29.40;71.40;;;;;;5054097;28;20155;-75
2023/08/18 11:02:49;;;;;;;6.40;5.18;;;29.40;71.70;;;;;;5053852;28;20017;-75
2023/08/18 11:05:20;;;;;;;7.50;5.22;;;29.50;70.50;;;;;;5053674;28;20040;-75
2023/08/18 11:07:46;;;;;;;6.03;5.22;;;29.50;70.00;;;;;;5036057;28;20466;-75
2023/08/18 11:10:22;;;;;;;7.15;5.07;;;29.50;70.80;;;;;;5053610;28;20025;-75
2023/08/18 11:12:50;;;;;;;8.52;5.55;;;29.50;68.90;;;;;;5052612;28;20033;-75
2023/08/18 11:15:19;;;;;;;7.63;5.28;;;29.50;68.70;;;;;;5050594;28;20040;-76
2023/08/18 11:17:46;;;;;;;11.20;6.93;;;29.50;69.00;;;;;;5049930;28;20021;-76
2023/08/18 11:20:12;;;;;;;18.70;10.35;;;29.50;70.00;;;;;;5053688;28;20482;-75
2023/08/18 11:22:39;;;;;;;7.90;5.30;;;29.50;70.90;;;;;;5035676;28;20507;-75
2023/08/18 11:25:05;;;;;;;7.28;4.78;;;29.60;69.90;;;;;;5053154;28;20352;-76
2023/08/18 11:27:32;;;;;;;7.38;5.03;;;29.60;69.40;;;;;;5053404;28;20071;-75
2023/08/18 11:29:59;;;;;;;5.82;4.75;;;29.60;69.90;;;;;;5053502;28;20570;-75
2023/08/18 11:32:25;;;;;;;5.18;4.57;;;29.60;70.20;;;;;;5053071;28;20032;-75
2023/08/18 11:34:52;;;;;;;5.32;4.82;;;29.60;69.70;;;;;;5051619;28;20044;-77
2023/08/18 12:37:28;;;;;;;7.05;4.00;;;28.70;75.80;;;;;;5050680;28;20064;-77
2023/08/18 12:39:55;;;;;;;4.38;3.67;;;28.60;75.30;;;;;;5052348;28;20037;-77
2023/08/18 12:42:23;;;;;;;5.72;3.55;;;28.60;75.20;;;;;;5052813;28;20033;-78
2023/08/18 12:44:49;;;;;;;6.68;3.38;;;28.50;74.40;;;;;;5052266;28;20079;-77
2023/08/18 12:47:15;;;;;;;5.85;4.00;;;28.50;74.90;;;;;;5052648;28;20033;-78
2023/08/18 12:49:41;;;;;;;6.68;3.75;;;28.40;75.90;;;;;;5052578;28;20039;-77
2023/08/18 12:52:07;;;;;;;7.05;3.58;;;28.40;76.20;;;;;;5052426;28;20397;-78
2023/08/18 12:54:32;;;;;;;4.80;3.78;;;28.40;76.50;;;;;;5052174;28;20041;-77
2023/08/18 12:56:58;;;;;;;6.65;3.92;;;28.30;77.10;;;;;;4975116;28;20110;-77
2023/08/18 12:59:24;;;;;;;7.53;4.03;;;28.30;77.00;;;;;;4970507;28;20446;-79
2023/08/18 13:01:51;;;;;;;5.20;3.90;;;28.30;77.80;;;;;;4970300;28;20465;-77
2023/08/18 13:04:17;;;;;;;6.70;3.97;;;28.20;79.00;;;;;;4973896;28;20035;-76
2023/08/18 13:06:42;;;;;;;10.45;4.57;;;28.20;78.00;;;;;;4973964;28;20114;-75
2023/08/18 13:09:08;;;;;;;8.88;3.70;;;28.20;77.30;;;;;;4973885;28;20045;-76
2023/08/18 13:11:36;;;;;;;4.10;3.47;;;28.20;78.40;;;;;;4973567;28;20365;-77
2023/08/18 13:14:02;;;;;;;7.00;3.88;;;28.20;77.60;;;;;;4973538;28;20043;-77
2023/08/18 13:16:28;;;;;;;8.23;3.15;;;28.30;76.80;;;;;;4973799;28;20065;-76
2023/08/18 13:18:54;;;;;;;11.98;3.95;;;28.20;77.00;;;;;;4973656;28;20039;-78
2023/08/18 13:21:20;;;;;;;5.15;3.55;;;28.20;77.30;;;;;;4973821;28;20092;-75
2023/08/18 13:23:46;;;;;;;5.70;3.28;;;28.20;76.30;;;;;;5041115;28;20044;-77
2023/08/18 13:26:12;;;;;;;4.30;3.15;;;28.10;76.60;;;;;;4973888;28;20031;-76
2023/08/18 13:28:37;;;;;;;4.25;3.03;;;28.20;76.60;;;;;;4973554;28;20031;-76
2023/08/18 13:31:04;;;;;;;4.18;3.33;;;28.20;76.40;;;;;;4973525;28;20084;-77
2023/08/18 13:33:29;;;;;;;6.97;3.53;;;28.10;77.00;;;;;;5049296;28;20036;-75
2023/08/18 13:35:55;;;;;;;4.35;3.10;;;28.20;77.80;;;;;;5063626;28;20120;-74
2023/08/18 13:38:21;;;;;;;4.75;3.00;;;28.20;78.40;;;;;;5075588;28;20043;-74
2023/08/18 13:40:46;;;;;;;6.20;3.53;;;28.20;76.40;;;;;;5075580;28;20055;-75
2023/08/18 13:43:12;;;;;;;3.55;3.22;;;28.20;75.30;;;;;;5075317;28;20024;-74